sensor_id;sensor_type;location;lat;lon;timestamp;P1;durP1;ratioP1;P2;durP2;ratioP2
53367;SDS011;39271;45.618;20.024;2022-12-07T00:30:09;22.98;;;14.50;;
53367;SDS011;39271;45.618;20.024;2022-12-07T01:01:03;29.88;;;9.95;;
53367;SDS011;39271;45.618;20.024;2022-12-07T01:13:37;11.65;;;6.40;;
53367;SDS011;39271;45.618;20.024;2022-12-07T01:23:05;10.00;;;5.53;;
53367;SDS011;39271;45.618;20.024;2022-12-07T01:26:10;12.68;;;7.22;;
53367;SDS011;39271;45.618;20.024;2022-12-07T01:35:24;15.27;;;8.73;;
53367;SDS011;39271;45.618;20.024;2022-12-07T01:47:36;9.98;;;6.18;;
53367;SDS011;39271;45.618;20.024;2022-12-07T01:51:29;14.70;;;8.23;;
53367;SDS011;39271;45.618;20.024;2022-12-07T02:06:09;9.52;;;6.18;;
53367;SDS011;39271;45.618;20.024;2022-12-07T02:09:01;23.10;;;7.38;;
53367;SDS011;39271;45.618;20.024;2022-12-07T02:11:47;20.77;;;8.35;;
53367;SDS011;39271;45.618;20.024;2022-12-07T02:42:33;5.43;;;3.63;;
53367;SDS011;39271;45.618;20.024;2022-12-07T02:51:40;3.92;;;3.53;;
53367;SDS011;39271;45.618;20.024;2022-12-07T03:59:39;1.63;;;1.35;;
53367;SDS011;39271;45.618;20.024;2022-12-07T04:09:34;3.00;;;1.70;;
53367;SDS011;39271;45.618;20.024;2022-12-07T04:15:39;4.47;;;1.70;;
53367;SDS011;39271;45.618;20.024;2022-12-07T18:45:57;25.50;;;9.90;;
53367;SDS011;39271;45.618;20.024;2022-12-07T18:54:45;25.63;;;7.68;;
53367;SDS011;39271;45.618;20.024;2022-12-07T18:57:33;13.52;;;6.43;;
53367;SDS011;39271;45.618;20.024;2022-12-07T19:12:32;16.75;;;6.68;;
53367;SDS011;39271;45.618;20.024;2022-12-07T19:15:11;13.25;;;8.52;;
53367;SDS011;39271;45.618;20.024;2022-12-07T19:17:40;6.85;;;4.70;;
53367;SDS011;39271;45.618;20.024;2022-12-07T19:20:07;8.23;;;5.25;;
53367;SDS011;39271;45.618;20.024;2022-12-07T19:22:34;9.27;;;5.22;;
53367;SDS011;39271;45.618;20.024;2022-12-07T19:25:00;30.42;;;7.22;;
53367;SDS011;39271;45.618;20.024;2022-12-07T19:27:28;13.57;;;4.20;;
53367;SDS011;39271;45.618;20.024;2022-12-07T19:29:56;13.60;;;5.25;;
53367;SDS011;39271;45.618;20.024;2022-12-07T19:32:22;8.20;;;4.60;;
53367;SDS011;39271;45.618;20.024;2022-12-07T19:34:51;8.73;;;4.18;;
53367;SDS011;39271;45.618;20.024;2022-12-07T19:37:20;10.80;;;4.20;;
53367;SDS011;39271;45.618;20.024;2022-12-07T19:42:26;5.70;;;3.95;;
53367;SDS011;39271;45.618;20.024;2022-12-07T19:44:52;4.47;;;2.40;;
53367;SDS011;39271;45.618;20.024;2022-12-07T19:47:18;9.45;;;4.05;;
53367;SDS011;39271;45.618;20.024;2022-12-07T19:49:44;13.27;;;3.75;;
53367;SDS011;39271;45.618;20.024;2022-12-07T19:52:13;5.30;;;3.78;;
53367;SDS011;39271;45.618;20.024;2022-12-07T19:54:39;6.80;;;4.18;;
53367;SDS011;39271;45.618;20.024;2022-12-07T19:57:05;6.28;;;3.45;;
53367;SDS011;39271;45.618;20.024;2022-12-07T19:59:48;7.88;;;3.15;;
53367;SDS011;39271;45.618;20.024;2022-12-07T20:05:22;8.50;;;4.45;;
53367;SDS011;39271;45.618;20.024;2022-12-07T20:07:49;9.88;;;3.45;;
53367;SDS011;39271;45.618;20.024;2022-12-07T20:10:15;9.82;;;5.25;;
53367;SDS011;39271;45.618;20.024;2022-12-07T20:12:41;9.63;;;4.68;;
53367;SDS011;39271;45.618;20.024;2022-12-07T20:15:26;13.55;;;3.90;;
53367;SDS011;39271;45.618;20.024;2022-12-07T20:17:52;7.97;;;4.63;;
53367;SDS011;39271;45.618;20.024;2022-12-07T20:20:18;11.50;;;5.43;;
53367;SDS011;39271;45.618;20.024;2022-12-07T20:25:47;14.52;;;6.53;;
53367;SDS011;39271;45.618;20.024;2022-12-07T20:28:16;12.25;;;6.32;;
53367;SDS011;39271;45.618;20.024;2022-12-07T20:35:54;11.20;;;5.65;;
53367;SDS011;39271;45.618;20.024;2022-12-07T20:38:46;7.22;;;4.18;;
53367;SDS011;39271;45.618;20.024;2022-12-07T20:41:20;9.82;;;5.70;;
53367;SDS011;39271;45.618;20.024;2022-12-07T20:46:57;7.72;;;5.15;;
53367;SDS011;39271;45.618;20.024;2022-12-07T20:49:23;25.23;;;4.47;;
53367;SDS011;39271;45.618;20.024;2022-12-07T20:54:17;7.68;;;4.97;;
53367;SDS011;39271;45.618;20.024;2022-12-07T20:56:43;8.32;;;3.85;;
53367;SDS011;39271;45.618;20.024;2022-12-07T20:59:13;11.50;;;4.93;;
53367;SDS011;39271;45.618;20.024;2022-12-07T21:01:48;10.25;;;6.00;;
53367;SDS011;39271;45.618;20.024;2022-12-07T21:04:24;14.02;;;5.40;;
53367;SDS011;39271;45.618;20.024;2022-12-07T21:06:56;3.33;;;2.60;;
53367;SDS011;39271;45.618;20.024;2022-12-07T21:09:27;12.00;;;4.25;;
53367;SDS011;39271;45.618;20.024;2022-12-07T21:14:56;13.77;;;6.45;;
53367;SDS011;39271;45.618;20.024;2022-12-07T21:17:38;11.75;;;6.32;;
53367;SDS011;39271;45.618;20.024;2022-12-07T21:20:09;18.13;;;7.07;;
53367;SDS011;39271;45.618;20.024;2022-12-07T21:22:59;14.77;;;7.47;;
53367;SDS011;39271;45.618;20.024;2022-12-07T21:25:45;36.45;;;9.75;;
53367;SDS011;39271;45.618;20.024;2022-12-07T21:28:20;14.93;;;6.70;;
53367;SDS011;39271;45.618;20.024;2022-12-07T21:30:51;21.98;;;7.57;;
53367;SDS011;39271;45.618;20.024;2022-12-07T21:35:54;14.73;;;5.65;;
53367;SDS011;39271;45.618;20.024;2022-12-07T21:38:23;6.70;;;4.25;;
53367;SDS011;39271;45.618;20.024;2022-12-07T21:40:50;5.75;;;3.97;;
53367;SDS011;39271;45.618;20.024;2022-12-07T21:43:24;6.60;;;4.03;;
53367;SDS011;39271;45.618;20.024;2022-12-07T21:46:00;12.35;;;7.93;;
53367;SDS011;39271;45.618;20.024;2022-12-07T21:48:47;14.00;;;4.80;;
53367;SDS011;39271;45.618;20.024;2022-12-07T21:51:23;11.25;;;4.60;;
53367;SDS011;39271;45.618;20.024;2022-12-07T21:54:06;5.00;;;4.13;;
53367;SDS011;39271;45.618;20.024;2022-12-07T21:56:40;8.05;;;4.55;;
53367;SDS011;39271;45.618;20.024;2022-12-07T21:59:33;19.58;;;6.43;;
53367;SDS011;39271;45.618;20.024;2022-12-07T22:05:25;7.63;;;5.00;;
53367;SDS011;39271;45.618;20.024;2022-12-07T22:13:44;24.95;;;8.15;;
53367;SDS011;39271;45.618;20.024;2022-12-07T22:16:30;18.88;;;5.80;;
53367;SDS011;39271;45.618;20.024;2022-12-07T22:19:02;42.10;;;6.57;;
53367;SDS011;39271;45.618;20.024;2022-12-07T22:24:46;17.58;;;5.57;;
53367;SDS011;39271;45.618;20.024;2022-12-07T22:27:53;12.82;;;7.30;;
53367;SDS011;39271;45.618;20.024;2022-12-07T22:30:32;11.30;;;5.88;;
53367;SDS011;39271;45.618;20.024;2022-12-07T22:33:03;22.85;;;7.75;;
53367;SDS011;39271;45.618;20.024;2022-12-07T22:35:37;6.47;;;2.20;;
53367;SDS011;39271;45.618;20.024;2022-12-07T22:38:11;7.05;;;3.13;;
53367;SDS011;39271;45.618;20.024;2022-12-07T22:40:45;14.90;;;4.35;;
53367;SDS011;39271;45.618;20.024;2022-12-07T22:43:19;13.15;;;3.97;;
53367;SDS011;39271;45.618;20.024;2022-12-07T22:46:06;3.65;;;2.33;;
53367;SDS011;39271;45.618;20.024;2022-12-07T22:48:37;4.68;;;2.33;;
53367;SDS011;39271;45.618;20.024;2022-12-07T22:51:06;9.98;;;3.88;;
53367;SDS011;39271;45.618;20.024;2022-12-07T22:53:47;4.70;;;2.15;;
53367;SDS011;39271;45.618;20.024;2022-12-07T22:58:56;3.70;;;2.13;;
53367;SDS011;39271;45.618;20.024;2022-12-07T23:01:34;6.90;;;3.88;;
53367;SDS011;39271;45.618;20.024;2022-12-07T23:04:08;8.02;;;3.22;;
53367;SDS011;39271;45.618;20.024;2022-12-07T23:06:34;3.03;;;2.00;;
53367;SDS011;39271;45.618;20.024;2022-12-07T23:09:12;5.25;;;2.55;;
53367;SDS011;39271;45.618;20.024;2022-12-07T23:11:47;7.63;;;2.75;;
53367;SDS011;39271;45.618;20.024;2022-12-07T23:14:33;6.93;;;3.08;;
53367;SDS011;39271;45.618;20.024;2022-12-07T23:16:59;6.72;;;3.10;;
53367;SDS011;39271;45.618;20.024;2022-12-07T23:22:20;2.70;;;2.35;;
53367;SDS011;39271;45.618;20.024;2022-12-07T23:24:50;5.72;;;3.28;;
53367;SDS011;39271;45.618;20.024;2022-12-07T23:27:16;6.13;;;3.58;;
53367;SDS011;39271;45.618;20.024;2022-12-07T23:29:42;16.38;;;4.60;;
53367;SDS011;39271;45.618;20.024;2022-12-07T23:34:59;6.55;;;3.45;;
53367;SDS011;39271;45.618;20.024;2022-12-07T23:37:28;2.28;;;1.42;;
53367;SDS011;39271;45.618;20.024;2022-12-07T23:39:54;16.27;;;4.13;;
53367;SDS011;39271;45.618;20.024;2022-12-07T23:42:20;6.63;;;2.42;;
53367;SDS011;39271;45.618;20.024;2022-12-07T23:44:46;4.78;;;2.38;;
53367;SDS011;39271;45.618;20.024;2022-12-07T23:47:12;3.08;;;2.67;;
53367;SDS011;39271;45.618;20.024;2022-12-07T23:49:39;6.65;;;2.58;;
53367;SDS011;39271;45.618;20.024;2022-12-07T23:52:09;9.63;;;2.95;;
53367;SDS011;39271;45.618;20.024;2022-12-07T23:54:35;2.45;;;2.25;;
53367;SDS011;39271;45.618;20.024;2022-12-07T23:57:01;6.88;;;3.47;;
53367;SDS011;39271;45.618;20.024;2022-12-07T23:59:27;5.57;;;3.50;;
